createdAt,value
2023-01-07T00:04:11.025Z,47.71
2023-01-07T00:09:16.406Z,47.74
2023-01-07T00:14:20.209Z,47.83
2023-01-07T00:19:24.315Z,47.80
2023-01-07T00:24:27.975Z,47.78
2023-01-07T00:29:31.524Z,47.76
2023-01-07T00:34:35.143Z,47.82
2023-01-07T00:39:41.918Z,47.95
2023-01-07T00:44:45.749Z,47.83
2023-01-07T00:49:49.290Z,47.89
2023-01-07T00:54:52.933Z,47.93
2023-01-07T00:59:56.507Z,47.82
2023-01-07T01:05:00.301Z,47.80
2023-01-07T01:10:03.880Z,47.79
2023-01-07T01:15:07.531Z,47.74
2023-01-07T01:20:11.074Z,47.87
2023-01-07T01:25:14.647Z,47.79
2023-01-07T01:30:18.336Z,47.81
2023-01-07T01:35:21.935Z,47.97
2023-01-07T01:40:25.478Z,48.06
2023-01-07T01:45:29.071Z,48.04
2023-01-07T01:50:32.691Z,48.03
2023-01-07T01:55:36.296Z,48.04
2023-01-07T02:00:39.845Z,47.85
2023-01-07T02:05:43.416Z,47.97
2023-01-07T02:10:48.156Z,48.11
2023-01-07T02:15:51.832Z,48.17
2023-01-07T02:20:55.415Z,48.23
2023-01-07T02:25:58.985Z,48.42
2023-01-07T02:31:02.552Z,48.28
2023-01-07T02:36:06.161Z,48.09
2023-01-07T02:41:09.700Z,48.12
2023-01-07T02:46:13.342Z,48.12
2023-01-07T02:51:16.985Z,48.15
2023-01-07T02:56:21.278Z,48.45
2023-01-07T03:01:25.026Z,48.36
2023-01-07T03:06:28.924Z,48.31
2023-01-07T03:11:32.607Z,48.34
2023-01-07T03:16:36.204Z,48.50
2023-01-07T03:21:39.871Z,48.64
2023-01-07T03:26:43.494Z,48.42
2023-01-07T03:31:47.073Z,48.43
2023-01-07T03:36:53.064Z,48.29
2023-01-07T03:42:14.165Z,48.33
2023-01-07T03:47:18.018Z,48.45
2023-01-07T03:52:21.620Z,48.21
2023-01-07T03:57:25.290Z,48.40
2023-01-07T04:02:30.842Z,48.15
2023-01-07T04:07:34.408Z,48.29
2023-01-07T04:12:37.960Z,48.02
2023-01-07T04:17:41.493Z,48.05
2023-01-07T04:22:45.003Z,48.18
2023-01-07T04:27:48.554Z,48.26
2023-01-07T04:32:52.641Z,48.12
2023-01-07T04:37:56.250Z,48.24
2023-01-07T04:42:59.823Z,48.45
2023-01-07T04:48:03.371Z,48.41
2023-01-07T04:53:07.183Z,48.32
2023-01-07T04:58:10.718Z,48.27
2023-01-07T05:03:14.268Z,48.24
2023-01-07T05:08:17.831Z,48.34
2023-01-07T05:13:21.373Z,48.45
2023-01-07T05:18:24.951Z,48.24
2023-01-07T05:23:29.626Z,48.20
2023-01-07T05:28:33.190Z,48.16
2023-01-07T05:33:36.808Z,48.37
2023-01-07T05:38:40.367Z,48.37
2023-01-07T05:43:45.957Z,48.39
2023-01-07T05:48:49.522Z,48.33
2023-01-07T05:53:53.076Z,48.44
2023-01-07T05:58:56.622Z,48.16
2023-01-07T06:04:00.296Z,48.31
2023-01-07T06:09:03.854Z,48.33
2023-01-07T06:14:08.611Z,49.31
2023-01-07T06:19:12.278Z,48.58
2023-01-07T06:24:16.915Z,48.50
2023-01-07T06:29:20.461Z,48.48
2023-01-07T06:34:25.056Z,48.55
2023-01-07T06:39:28.790Z,48.62
2023-01-07T06:44:32.412Z,48.45
2023-01-07T06:49:35.946Z,48.36
2023-01-07T06:54:39.487Z,48.21
2023-01-07T06:59:44.085Z,48.36
2023-01-07T07:04:47.865Z,48.35
2023-01-07T07:09:51.820Z,48.28
2023-01-07T07:14:55.366Z,48.27
2023-01-07T07:19:58.930Z,48.29
2023-01-07T07:25:03.530Z,48.40
2023-01-07T07:30:08.189Z,48.44
2023-01-07T07:35:11.863Z,48.48
2023-01-07T07:40:15.410Z,48.53
2023-01-07T07:45:19.966Z,48.42
2023-01-07T07:50:23.493Z,48.49
2023-01-07T07:55:27.252Z,48.49
2023-01-07T08:00:30.969Z,48.50
2023-01-07T08:05:34.702Z,48.47
2023-01-07T08:10:38.505Z,48.45
2023-01-07T08:15:42.287Z,48.39
2023-01-07T08:20:48.001Z,48.49
2023-01-07T08:25:51.624Z,48.94
2023-01-07T08:30:55.293Z,48.98
2023-01-07T08:35:58.964Z,49.23
2023-01-07T08:41:02.564Z,49.85
2023-01-07T08:46:06.319Z,49.95
2023-01-07T08:51:09.917Z,50.91
2023-01-07T08:56:13.491Z,51.44
2023-01-07T09:01:17.165Z,51.12
2023-01-07T09:06:20.919Z,50.41
2023-01-07T09:11:24.671Z,50.33
2023-01-07T09:16:28.288Z,50.27
2023-01-07T09:21:32.011Z,51.15
2023-01-07T09:26:35.613Z,50.62
2023-01-07T09:31:39.261Z,50.16
2023-01-07T09:36:44.036Z,49.46
2023-01-07T09:41:47.638Z,49.37
2023-01-07T09:46:51.320Z,49.25
2023-01-07T09:51:54.876Z,48.95
2023-01-07T09:56:58.519Z,48.95
2023-01-07T10:02:02.097Z,49.53
2023-01-07T10:07:07.838Z,49.14
2023-01-07T10:12:11.399Z,50.73
2023-01-07T10:17:14.956Z,50.37
2023-01-07T10:24:16.049Z,50.58
2023-01-07T10:29:19.635Z,50.54
2023-01-07T10:34:23.176Z,50.22
2023-01-07T10:39:26.743Z,49.88
2023-01-07T10:44:30.430Z,49.74
2023-01-07T10:49:34.119Z,49.82
2023-01-07T10:54:38.287Z,49.86
2023-01-07T10:59:41.841Z,49.78
2023-01-07T11:04:45.497Z,49.81
2023-01-07T11:09:49.395Z,49.48
2023-01-07T11:14:52.988Z,49.84
2023-01-07T11:19:56.795Z,49.99
2023-01-07T11:25:00.329Z,49.81
2023-01-07T11:30:04.144Z,49.94
2023-01-07T11:35:07.720Z,49.95
2023-01-07T11:40:11.265Z,49.75
2023-01-07T11:45:14.979Z,49.76
2023-01-07T11:50:18.603Z,49.37
2023-01-07T11:55:22.173Z,49.34
2023-01-07T12:00:25.724Z,49.55
2023-01-07T12:05:30.276Z,49.34
2023-01-07T12:10:33.947Z,49.60
2023-01-07T12:15:37.638Z,49.22
2023-01-07T12:20:41.168Z,49.35
2023-01-07T12:25:45.474Z,49.41
2023-01-07T12:30:51.015Z,49.60
2023-01-07T12:35:54.645Z,49.52
2023-01-07T12:40:58.184Z,49.52
2023-01-07T12:46:01.746Z,49.48
2023-01-07T12:51:05.301Z,49.32
2023-01-07T12:56:08.837Z,49.74
2023-01-07T13:01:12.549Z,49.90
2023-01-07T13:06:16.148Z,49.78
2023-01-07T13:11:20.402Z,49.80
2023-01-07T13:16:24.036Z,49.55
2023-01-07T13:21:27.608Z,49.69
2023-01-07T13:26:31.960Z,49.45
2023-01-07T13:31:35.597Z,49.46
2023-01-07T13:36:39.210Z,49.63
2023-01-07T13:41:42.842Z,49.97
2023-01-07T13:46:46.479Z,49.71
2023-01-07T13:51:50.255Z,49.70
2023-01-07T13:56:53.866Z,49.89
2023-01-07T14:01:57.485Z,49.81
2023-01-07T14:07:01.125Z,49.76
2023-01-07T14:12:04.691Z,49.87
2023-01-07T14:17:08.254Z,50.14
2023-01-07T14:22:11.777Z,50.15
2023-01-07T14:27:15.297Z,49.95
2023-01-07T14:32:18.900Z,49.85
2023-01-07T14:37:22.653Z,49.72
2023-01-07T14:42:26.320Z,49.70
2023-01-07T14:47:29.881Z,49.82
2023-01-07T14:52:33.406Z,49.63
2023-01-07T14:57:36.988Z,49.96
2023-01-07T15:02:40.700Z,49.71
2023-01-07T15:07:44.379Z,50.58
2023-01-07T15:13:05.863Z,51.07
2023-01-07T15:18:09.513Z,51.07
2023-01-07T15:23:13.202Z,50.67
2023-01-07T15:28:16.884Z,50.34
2023-01-07T15:33:20.608Z,50.24
2023-01-07T15:38:24.293Z,50.32
2023-01-07T15:43:28.524Z,50.18
2023-01-07T15:48:32.081Z,50.13
2023-01-07T15:53:35.619Z,50.06
2023-01-07T15:58:39.871Z,50.41
2023-01-07T16:03:45.781Z,50.31
2023-01-07T16:08:49.293Z,50.34
2023-01-07T16:13:52.870Z,50.98
2023-01-07T16:18:56.598Z,52.59
2023-01-07T16:24:01.287Z,51.49
2023-01-07T16:33:12.863Z,50.65
2023-01-07T16:38:16.649Z,50.69
2023-01-07T16:43:20.484Z,52.49
2023-01-07T16:48:24.272Z,53.08
2023-01-07T16:53:28.136Z,55.24
2023-01-07T16:58:31.720Z,56.73
2023-01-07T17:03:35.501Z,57.30
2023-01-07T17:08:39.526Z,57.35
2023-01-07T17:13:44.119Z,54.82
2023-01-07T17:18:47.675Z,53.31
2023-01-07T17:23:51.598Z,54.62
2023-01-07T17:28:55.195Z,55.11
2023-01-07T17:33:58.924Z,55.48
2023-01-07T17:39:02.594Z,54.19
2023-01-07T17:44:06.174Z,55.84
2023-01-07T17:49:09.801Z,56.55
2023-01-07T17:54:13.338Z,55.66
2023-01-07T17:59:17.247Z,53.47
2023-01-07T18:04:21.486Z,52.01
2023-01-07T18:09:25.218Z,51.56
2023-01-07T18:14:28.841Z,54.12
2023-01-07T18:19:32.877Z,53.82
2023-01-07T18:24:36.438Z,51.78
2023-01-07T18:29:40.129Z,50.70
2023-01-07T18:34:43.851Z,50.37
2023-01-07T18:39:47.396Z,49.58
2023-01-07T18:44:51.115Z,49.23
2023-01-07T18:49:54.717Z,49.25
2023-01-07T18:54:58.283Z,49.33
2023-01-07T19:00:01.856Z,49.16
2023-01-07T19:05:05.508Z,48.92
2023-01-07T19:10:09.062Z,49.23
2023-01-07T19:15:12.606Z,48.41
2023-01-07T19:20:16.733Z,48.17
2023-01-07T19:25:20.350Z,48.38
2023-01-07T19:30:24.028Z,47.95
2023-01-07T19:35:28.122Z,47.80
2023-01-07T19:40:31.753Z,47.71
2023-01-07T19:45:35.475Z,47.63
2023-01-07T19:50:39.440Z,47.36
2023-01-07T19:55:43.039Z,46.54
2023-01-07T20:00:46.659Z,46.40
2023-01-07T20:05:50.380Z,46.36
2023-01-07T20:10:54.009Z,46.33
2023-01-07T20:15:57.549Z,47.37
2023-01-07T20:21:01.315Z,46.83
2023-01-07T20:26:06.774Z,46.61
2023-01-07T20:31:10.926Z,46.75
2023-01-07T20:36:14.474Z,46.55
2023-01-07T20:41:18.307Z,46.63
2023-01-07T20:46:22.083Z,46.49
2023-01-07T20:51:25.831Z,46.47
2023-01-07T20:56:32.499Z,46.47
2023-01-07T21:01:36.780Z,46.21
2023-01-07T21:06:41.375Z,45.87
2023-01-07T21:11:48.024Z,46.16
2023-01-07T21:16:51.671Z,44.76
2023-01-07T21:21:55.466Z,44.83
2023-01-07T21:29:13.005Z,45.42
2023-01-07T21:34:21.484Z,45.57
2023-01-07T21:39:30.057Z,46.01
2023-01-07T21:44:38.938Z,46.03
2023-01-07T21:49:49.599Z,46.73
2023-01-07T21:54:58.158Z,46.26
2023-01-07T22:00:08.482Z,46.33
2023-01-07T22:05:16.817Z,46.66
2023-01-07T22:10:25.311Z,46.63
2023-01-07T22:15:33.780Z,46.98
2023-01-07T22:20:42.074Z,46.87
2023-01-07T22:25:50.464Z,47.08
2023-01-07T22:31:00.763Z,47.06
2023-01-07T22:36:11.597Z,46.72
2023-01-07T22:41:20.379Z,47.01
2023-01-07T22:46:33.783Z,47.24
2023-01-07T22:51:47.860Z,46.82
2023-01-07T22:56:56.388Z,47.25
2023-01-07T23:02:04.997Z,47.30
2023-01-07T23:07:13.344Z,46.94
2023-01-07T23:12:27.556Z,47.22
2023-01-07T23:17:35.835Z,46.77
2023-01-07T23:22:44.151Z,47.51
2023-01-07T23:27:54.076Z,47.48
2023-01-07T23:33:02.586Z,47.56
2023-01-07T23:38:11.121Z,47.82
2023-01-07T23:43:19.531Z,47.70
2023-01-07T23:48:28.030Z,47.81
2023-01-07T23:53:36.731Z,47.94
2023-01-07T23:58:45.174Z,47.73
